createdAt,value
2024-05-09T00:00:45.203Z,101168.92
2024-05-09T00:03:33.274Z,101170.40
2024-05-09T00:06:01.168Z,101168.77
2024-05-09T00:08:29.200Z,101164.67
2024-05-09T00:10:57.294Z,101165.60
2024-05-09T00:13:27.806Z,101167.28
2024-05-09T00:15:55.494Z,101168.32
2024-05-09T00:18:23.532Z,101171.02
2024-05-09T00:20:51.565Z,101172.04
2024-05-09T00:23:19.812Z,101171.96
2024-05-09T00:25:49.940Z,101170.71
2024-05-09T00:28:17.691Z,101170.52
2024-05-09T00:30:45.412Z,101171.54
2024-05-09T00:33:13.407Z,101174.80
2024-05-09T00:35:41.684Z,101172.98
2024-05-09T00:38:10.390Z,101171.95
2024-05-09T00:40:43.424Z,101171.22
2024-05-09T00:43:13.409Z,101172.54
2024-05-09T00:45:43.151Z,101172.11
2024-05-09T00:48:14.956Z,101167.85
2024-05-09T00:50:45.494Z,101169.24
2024-05-09T00:53:14.942Z,101164.23
2024-05-09T00:55:43.406Z,101165.05
2024-05-09T00:58:14.575Z,101162.73
2024-05-09T01:00:42.951Z,101160.39
2024-05-09T01:03:13.026Z,101159.55
2024-05-09T01:05:43.424Z,101159.94
2024-05-09T01:08:11.808Z,101161.58
2024-05-09T01:10:42.873Z,101160.25
2024-05-09T01:13:12.913Z,101163.27
2024-05-09T01:15:40.825Z,101163.60
2024-05-09T01:19:25.598Z,101157.86
2024-05-09T01:21:53.862Z,101160.30
2024-05-09T01:24:22.763Z,101162.34
2024-05-09T01:26:51.706Z,101162.23
2024-05-09T01:29:20.443Z,101170.04
2024-05-09T01:31:49.001Z,101170.59
2024-05-09T01:34:17.060Z,101167.15
2024-05-09T01:37:20.247Z,101174.98
2024-05-09T01:39:49.156Z,101170.23
2024-05-09T01:42:17.395Z,101169.36
2024-05-09T01:44:46.758Z,101178.66
2024-05-09T01:47:14.526Z,101180.27
2024-05-09T01:49:42.965Z,101184.20
2024-05-09T01:52:11.214Z,101182.84
2024-05-09T01:54:39.819Z,101183.27
2024-05-09T01:57:07.494Z,101184.27
2024-05-09T01:59:36.092Z,101179.43
2024-05-09T02:02:04.764Z,101185.56
2024-05-09T02:04:34.114Z,101186.60
2024-05-09T02:07:02.830Z,101188.97
2024-05-09T02:09:31.840Z,101189.63
2024-05-09T02:11:59.650Z,101188.65
2024-05-09T02:14:27.473Z,101188.76
2024-05-09T02:16:55.809Z,101190.30
2024-05-09T02:19:24.024Z,101186.33
2024-05-09T02:21:52.015Z,101189.05
2024-05-09T02:24:20.673Z,101186.38
2024-05-09T02:26:49.602Z,101181.60
2024-05-09T02:29:17.643Z,101182.29
2024-05-09T02:31:46.228Z,101182.91
2024-05-09T02:34:14.591Z,101181.75
2024-05-09T02:36:42.723Z,101178.61
2024-05-09T02:39:10.876Z,101179.80
2024-05-09T02:41:38.949Z,101179.27
2024-05-09T02:44:07.302Z,101178.99
2024-05-09T02:46:36.145Z,101179.41
2024-05-09T02:49:04.079Z,101185.31
2024-05-09T02:51:32.377Z,101184.16
2024-05-09T02:54:00.129Z,101183.91
2024-05-09T02:56:27.890Z,101186.57
2024-05-09T02:58:56.584Z,101186.55
2024-05-09T03:01:24.325Z,101190.38
2024-05-09T03:03:52.967Z,101195.07
2024-05-09T03:06:22.572Z,101194.30
2024-05-09T03:08:50.706Z,101189.78
2024-05-09T03:11:23.144Z,101186.76
2024-05-09T03:13:53.000Z,101191.70
2024-05-09T03:16:21.816Z,101195.47
2024-05-09T03:18:49.639Z,101197.52
2024-05-09T03:21:17.785Z,101196.30
2024-05-09T03:23:45.895Z,101200.96
2024-05-09T03:26:19.348Z,101200.77
2024-05-09T03:28:47.941Z,101199.41
2024-05-09T03:31:18.213Z,101196.70
2024-05-09T03:33:46.944Z,101195.14
2024-05-09T03:36:15.241Z,101197.59
2024-05-09T03:38:43.552Z,101198.31
2024-05-09T03:41:12.740Z,101201.11
2024-05-09T03:43:41.083Z,101202.67
2024-05-09T03:46:08.724Z,101205.45
2024-05-09T03:48:37.217Z,101205.85
2024-05-09T03:51:07.366Z,101204.30
2024-05-09T03:53:36.363Z,101196.73
2024-05-09T03:56:07.931Z,101194.33
2024-05-09T03:58:35.648Z,101194.46
2024-05-09T04:01:05.347Z,101201.59
2024-05-09T04:03:35.125Z,101199.98
2024-05-09T04:06:04.027Z,101201.60
2024-05-09T04:08:31.956Z,101200.83
2024-05-09T04:11:00.796Z,101203.89
2024-05-09T04:13:28.834Z,101203.70
2024-05-09T04:15:56.835Z,101202.57
2024-05-09T04:18:25.534Z,101201.25
2024-05-09T04:20:54.324Z,101198.24
2024-05-09T04:23:22.731Z,101195.86
2024-05-09T04:25:51.011Z,101197.65
2024-05-09T04:28:20.267Z,101201.21
2024-05-09T04:30:48.659Z,101202.62
2024-05-09T04:33:19.184Z,101201.01
2024-05-09T04:35:49.301Z,101204.77
2024-05-09T04:38:19.122Z,101200.17
2024-05-09T04:40:48.076Z,101200.95
2024-05-09T04:43:19.985Z,101205.58
2024-05-09T04:45:49.931Z,101202.09
2024-05-09T04:48:20.380Z,101200.70
2024-05-09T04:50:48.942Z,101203.50
2024-05-09T04:53:17.928Z,101201.67
2024-05-09T04:55:46.264Z,101202.10
2024-05-09T04:58:14.498Z,101199.23
2024-05-09T05:00:43.961Z,101196.61
2024-05-09T05:03:16.135Z,101200.63
2024-05-09T05:05:46.888Z,101203.95
2024-05-09T05:08:17.534Z,101198.35
2024-05-09T05:10:48.639Z,101190.95
2024-05-09T05:13:25.559Z,101195.50
2024-05-09T05:15:58.044Z,101198.81
2024-05-09T05:18:28.233Z,101198.42
2024-05-09T05:20:57.056Z,101198.23
2024-05-09T05:23:26.025Z,101199.73
2024-05-09T05:25:55.893Z,101201.55
2024-05-09T05:28:29.554Z,101205.23
2024-05-09T05:31:00.402Z,101207.05
2024-05-09T05:33:30.737Z,101202.86
2024-05-09T05:35:59.007Z,101201.74
2024-05-09T05:38:28.385Z,101203.32
2024-05-09T05:40:56.815Z,101201.71
2024-05-09T05:43:25.409Z,101200.96
2024-05-09T05:45:53.979Z,101204.82
2024-05-09T05:48:22.949Z,101203.09
2024-05-09T05:50:51.679Z,101201.20
2024-05-09T05:53:20.193Z,101195.02
2024-05-09T05:55:48.315Z,101194.33
2024-05-09T05:58:16.493Z,101195.45
2024-05-09T06:00:46.269Z,101198.83
2024-05-09T06:03:15.022Z,101200.95
2024-05-09T06:05:45.562Z,101197.52
2024-05-09T06:08:14.112Z,101196.95
2024-05-09T06:10:42.843Z,101199.04
2024-05-09T06:13:13.737Z,101198.81
2024-05-09T06:15:43.634Z,101198.51
2024-05-09T06:18:14.395Z,101200.23
2024-05-09T06:20:43.938Z,101202.68
2024-05-09T06:23:14.386Z,101206.58
2024-05-09T06:25:43.749Z,101208.52
2024-05-09T06:28:11.657Z,101210.23
2024-05-09T06:30:42.003Z,101215.72
2024-05-09T06:33:13.934Z,101209.55
2024-05-09T06:35:45.864Z,101211.42
2024-05-09T06:38:14.398Z,101210.14
2024-05-09T06:40:44.002Z,101213.62
2024-05-09T06:43:14.722Z,101214.67
2024-05-09T06:45:43.950Z,101214.42
2024-05-09T06:48:12.235Z,101216.60
2024-05-09T06:50:41.089Z,101218.22
2024-05-09T06:53:09.674Z,101217.61
2024-05-09T06:55:38.417Z,101216.53
2024-05-09T06:58:09.519Z,101217.50
2024-05-09T07:00:40.547Z,101213.30
2024-05-09T07:03:12.475Z,101209.23
2024-05-09T07:05:42.201Z,101206.34
2024-05-09T07:08:11.317Z,101200.48
2024-05-09T07:10:39.166Z,101194.34
2024-05-09T07:13:10.866Z,101193.73
2024-05-09T07:15:40.232Z,101192.05
2024-05-09T07:18:13.234Z,101195.61
2024-05-09T07:20:42.449Z,101192.27
2024-05-09T07:23:11.510Z,101192.94
2024-05-09T07:25:40.127Z,101192.84
2024-05-09T07:28:16.731Z,101194.98
2024-05-09T07:30:45.547Z,101197.10
2024-05-09T07:33:22.778Z,101193.59
2024-05-09T07:35:52.561Z,101197.42
2024-05-09T07:38:21.095Z,101197.76
2024-05-09T07:40:49.625Z,101198.23
2024-05-09T07:43:17.872Z,101197.30
2024-05-09T07:45:52.679Z,101192.98
2024-05-09T07:52:38.423Z,101189.80
2024-05-09T07:53:47.699Z,101189.53
2024-05-09T07:56:22.696Z,101189.98
2024-05-09T07:58:53.781Z,101187.27
2024-05-09T08:01:24.440Z,101192.69
2024-05-09T08:03:53.265Z,101188.44
2024-05-09T08:06:21.313Z,101185.95
2024-05-09T08:08:50.579Z,101191.45
2024-05-09T08:11:20.182Z,101184.14
2024-05-09T08:13:48.674Z,101186.05
2024-05-09T08:16:18.782Z,101183.09
2024-05-09T08:18:47.923Z,101181.86
2024-05-09T08:21:16.132Z,101182.77
2024-05-09T08:23:44.144Z,101183.66
2024-05-09T08:26:12.709Z,101186.75
2024-05-09T08:28:43.651Z,101185.64
2024-05-09T08:31:11.765Z,101183.60
2024-05-09T08:33:47.366Z,101182.25
2024-05-09T08:36:15.962Z,101180.48
2024-05-09T08:38:44.146Z,101184.36
2024-05-09T08:41:14.181Z,101187.27
2024-05-09T08:43:43.360Z,101182.64
2024-05-09T08:46:13.803Z,101186.05
2024-05-09T08:48:43.838Z,101186.54
2024-05-09T08:51:13.832Z,101186.16
2024-05-09T08:53:41.492Z,101186.80
2024-05-09T08:56:11.476Z,101177.44
2024-05-09T08:58:40.515Z,101178.98
2024-05-09T09:01:08.929Z,101172.49
2024-05-09T09:03:38.240Z,101175.73
2024-05-09T09:06:08.833Z,101173.20
2024-05-09T09:08:41.177Z,101176.00
2024-05-09T09:11:10.676Z,101175.07
2024-05-09T09:13:40.169Z,101184.09
2024-05-09T09:16:08.299Z,101181.41
2024-05-09T09:18:37.056Z,101182.73
2024-05-09T09:21:10.405Z,101186.91
2024-05-09T09:23:41.592Z,101180.91
2024-05-09T09:26:16.178Z,101182.15
2024-05-09T09:28:46.821Z,101185.92
2024-05-09T09:31:20.761Z,101186.59
2024-05-09T09:33:49.136Z,101180.90
2024-05-09T09:36:18.209Z,101178.80
2024-05-09T09:38:47.130Z,101173.29
2024-05-09T09:41:17.409Z,101172.23
2024-05-09T09:43:45.543Z,101171.12
2024-05-09T09:46:14.568Z,101173.95
2024-05-09T09:48:44.256Z,101175.04
2024-05-09T09:51:15.162Z,101178.45
2024-05-09T09:53:43.951Z,101174.38
2024-05-09T09:56:13.204Z,101171.17
2024-05-09T09:58:42.283Z,101170.50
2024-05-09T10:01:10.765Z,101162.27
2024-05-09T10:03:39.135Z,101161.09
2024-05-09T10:06:08.855Z,101159.18
2024-05-09T10:08:37.519Z,101160.69
2024-05-09T10:11:06.692Z,101157.79
2024-05-09T10:13:35.280Z,101159.91
2024-05-09T10:16:11.203Z,101161.85
2024-05-09T10:18:41.064Z,101159.66
2024-05-09T10:21:17.294Z,101153.17
2024-05-09T10:24:08.433Z,101151.45
2024-05-09T10:26:37.207Z,101149.91
2024-05-09T10:29:18.681Z,101149.02
2024-05-09T10:31:47.881Z,101150.16
2024-05-09T10:34:20.868Z,101144.28
2024-05-09T10:36:54.195Z,101142.23
2024-05-09T10:39:25.421Z,101139.58
2024-05-09T10:41:53.221Z,101139.29
2024-05-09T10:44:21.667Z,101136.60
2024-05-09T10:46:51.130Z,101134.30
2024-05-09T10:49:19.221Z,101133.30
2024-05-09T10:51:48.760Z,101132.66
2024-05-09T10:54:17.152Z,101132.45
2024-05-09T10:56:44.741Z,101137.71
2024-05-09T10:59:12.890Z,101135.29
2024-05-09T11:01:41.690Z,101126.98
2024-05-09T11:04:10.159Z,101116.98
2024-05-09T11:06:39.034Z,101118.47
2024-05-09T11:09:07.729Z,101112.00
2024-05-09T11:11:36.704Z,101117.34
2024-05-09T11:14:12.819Z,101117.23
2024-05-09T11:16:41.095Z,101121.98
2024-05-09T11:19:14.312Z,101116.91
2024-05-09T11:21:43.274Z,101106.27
2024-05-09T11:24:11.897Z,101099.27
2024-05-09T11:26:40.534Z,101099.73
2024-05-09T11:29:08.525Z,101104.52
2024-05-09T11:31:48.730Z,101095.59
2024-05-09T11:34:16.929Z,101096.42
2024-05-09T11:36:45.788Z,101091.79
2024-05-09T11:39:15.147Z,101095.18
2024-05-09T11:41:42.901Z,101092.39
2024-05-09T11:44:11.297Z,101095.55
2024-05-09T11:46:39.646Z,101097.08
2024-05-09T11:49:09.324Z,101091.48
2024-05-09T11:51:45.418Z,101092.64
2024-05-09T11:54:15.549Z,101084.63
2024-05-09T11:56:44.273Z,101084.92
2024-05-09T11:59:11.984Z,101082.54
2024-05-09T12:01:40.137Z,101088.29
2024-05-09T12:04:08.873Z,101083.22
2024-05-09T12:06:37.228Z,101080.92
2024-05-09T12:09:05.230Z,101079.27
2024-05-09T12:11:33.291Z,101077.95
2024-05-09T12:14:01.527Z,101079.13
2024-05-09T12:16:30.207Z,101077.74
2024-05-09T12:18:58.884Z,101076.02
2024-05-09T12:21:27.475Z,101075.46
2024-05-09T12:23:56.723Z,101069.43
2024-05-09T12:26:24.455Z,101074.50
2024-05-09T12:28:52.718Z,101071.34
2024-05-09T12:31:20.518Z,101070.95
2024-05-09T12:33:49.236Z,101068.98
2024-05-09T12:36:17.307Z,101069.11
2024-05-09T12:38:46.084Z,101067.38
2024-05-09T12:41:14.301Z,101064.15
2024-05-09T12:43:45.600Z,101061.41
2024-05-09T12:46:13.746Z,101060.17
2024-05-09T12:48:42.037Z,101060.86
2024-05-09T12:51:12.490Z,101060.95
2024-05-09T12:53:41.356Z,101055.15
2024-05-09T12:56:11.711Z,101050.39
2024-05-09T12:58:39.710Z,101042.50
2024-05-09T13:01:09.504Z,101035.06
2024-05-09T13:03:38.790Z,101033.44
2024-05-09T13:06:07.207Z,101032.16
2024-05-09T13:08:36.103Z,101035.34
2024-05-09T13:11:04.855Z,101035.77
2024-05-09T13:13:33.048Z,101031.58
2024-05-09T13:16:01.576Z,101033.02
2024-05-09T13:18:29.943Z,101033.05
2024-05-09T13:20:58.361Z,101032.02
2024-05-09T13:23:27.014Z,101031.05
2024-05-09T13:25:55.595Z,101033.80
2024-05-09T13:28:24.141Z,101029.01
2024-05-09T13:30:52.608Z,101022.36
2024-05-09T13:33:20.553Z,101009.33
2024-05-09T13:35:50.901Z,101011.45
2024-05-09T13:38:20.511Z,101014.38
2024-05-09T13:40:50.342Z,101015.80
2024-05-09T13:43:21.518Z,101007.14
2024-05-09T13:45:50.321Z,101001.73
2024-05-09T13:48:19.579Z,101002.24
2024-05-09T13:50:47.869Z,101002.33
2024-05-09T13:53:16.513Z,101001.71
2024-05-09T13:55:44.497Z,101005.89
2024-05-09T13:58:15.867Z,101005.29
2024-05-09T14:00:48.070Z,100997.30
2024-05-09T14:03:20.830Z,100986.45
2024-05-09T14:05:51.564Z,100984.21
2024-05-09T14:08:21.630Z,100985.89
2024-05-09T14:10:50.749Z,100983.67
2024-05-09T14:13:19.782Z,100976.42
2024-05-09T14:15:47.798Z,100977.81
2024-05-09T14:18:16.282Z,100973.97
2024-05-09T14:20:44.628Z,100973.32
2024-05-09T14:23:12.679Z,100970.79
2024-05-09T14:25:43.596Z,100972.30
2024-05-09T14:28:15.387Z,100964.66
2024-05-09T14:30:44.538Z,100958.77
2024-05-09T14:33:12.720Z,100957.91
2024-05-09T14:35:42.864Z,100956.27
2024-05-09T14:38:10.848Z,100951.40
2024-05-09T14:40:43.065Z,100944.39
2024-05-09T14:43:14.583Z,100943.16
2024-05-09T14:45:46.657Z,100942.23
2024-05-09T14:48:16.410Z,100938.73
2024-05-09T14:50:44.499Z,100936.02
2024-05-09T14:53:13.797Z,100935.86
2024-05-09T14:55:43.476Z,100937.19
2024-05-09T14:58:12.913Z,100931.98
2024-05-09T15:00:51.156Z,100928.67
2024-05-09T15:03:26.538Z,100926.91
2024-05-09T15:05:55.545Z,100921.48
2024-05-09T15:08:26.844Z,100917.58
2024-05-09T15:10:57.696Z,100915.02
2024-05-09T15:13:25.636Z,100912.85
2024-05-09T15:15:53.805Z,100916.73
2024-05-09T15:18:22.600Z,100908.91
2024-05-09T15:20:50.761Z,100908.96
2024-05-09T15:23:19.898Z,100910.55
2024-05-09T15:25:48.913Z,100910.30
2024-05-09T15:28:17.765Z,100906.75
2024-05-09T15:30:47.847Z,100896.83
2024-05-09T15:33:15.852Z,100897.98
2024-05-09T15:35:46.471Z,100894.61
2024-05-09T15:38:15.516Z,100888.98
2024-05-09T15:40:44.827Z,100888.47
2024-05-09T15:43:13.708Z,100883.51
2024-05-09T15:45:42.225Z,100880.75
2024-05-09T15:48:11.384Z,100881.50
2024-05-09T15:50:41.820Z,100879.33
2024-05-09T15:53:13.059Z,100876.13
2024-05-09T15:55:43.111Z,100876.03
2024-05-09T15:58:12.912Z,100875.58
2024-05-09T16:00:44.783Z,100871.36
2024-05-09T16:03:14.997Z,100874.86
2024-05-09T16:05:48.194Z,100874.73
2024-05-09T16:08:17.231Z,100872.09
2024-05-09T16:10:47.100Z,100871.45
2024-05-09T16:13:16.481Z,100866.46
2024-05-09T16:15:46.270Z,100866.78
2024-05-09T16:18:15.029Z,100864.21
2024-05-09T16:20:44.931Z,100861.73
2024-05-09T16:23:14.467Z,100855.68
2024-05-09T16:25:45.837Z,100852.37
2024-05-09T16:28:14.896Z,100853.65
2024-05-09T16:30:42.837Z,100853.81
2024-05-09T16:33:12.414Z,100854.13
2024-05-09T16:35:40.971Z,100852.35
2024-05-09T16:38:10.075Z,100852.76
2024-05-09T16:40:40.544Z,100850.89
2024-05-09T16:43:11.912Z,100847.72
2024-05-09T16:45:46.135Z,100845.58
2024-05-09T16:48:14.823Z,100847.77
2024-05-09T16:50:42.789Z,100850.91
2024-05-09T16:53:10.464Z,100850.88
2024-05-09T16:55:38.385Z,100848.49
2024-05-09T16:58:07.983Z,100846.55
2024-05-09T17:00:42.099Z,100847.09
2024-05-09T17:03:14.814Z,100846.91
2024-05-09T17:05:50.800Z,100842.85
2024-05-09T17:08:21.109Z,100844.35
2024-05-09T17:10:49.964Z,100849.39
2024-05-09T17:13:19.354Z,100849.86
2024-05-09T17:15:49.353Z,100849.13
2024-05-09T17:18:17.366Z,100847.02
2024-05-09T17:20:45.231Z,100847.31
2024-05-09T17:23:14.378Z,100850.20
2024-05-09T17:25:44.074Z,100849.28
2024-05-09T17:28:12.467Z,100850.77
2024-05-09T17:30:43.058Z,100851.11
2024-05-09T17:33:12.855Z,100847.09
2024-05-09T17:35:42.329Z,100847.06
2024-05-09T17:38:11.307Z,100852.85
2024-05-09T17:40:40.417Z,100849.45
2024-05-09T17:43:10.596Z,100845.61
2024-05-09T17:45:40.669Z,100847.41
2024-05-09T17:48:11.048Z,100856.88
2024-05-09T17:50:42.073Z,100852.61
2024-05-09T17:53:11.312Z,100850.48
2024-05-09T17:55:40.830Z,100853.13
2024-05-09T17:58:09.439Z,100852.86
2024-05-09T18:00:40.781Z,100851.51
2024-05-09T18:03:12.622Z,100850.88
2024-05-09T18:05:43.959Z,100858.88
2024-05-09T18:08:13.366Z,100856.77
2024-05-09T18:10:42.775Z,100859.45
2024-05-09T18:13:12.380Z,100860.04
2024-05-09T18:15:41.608Z,100855.08
2024-05-09T18:18:11.960Z,100855.09
2024-05-09T18:20:44.516Z,100855.78
2024-05-09T18:23:16.512Z,100858.31
2024-05-09T18:25:48.078Z,100854.35
2024-05-09T18:28:17.071Z,100858.83
2024-05-09T18:30:46.071Z,100859.27
2024-05-09T18:33:14.942Z,100859.66
2024-05-09T18:35:44.246Z,100865.14
2024-05-09T18:38:12.211Z,100862.91
2024-05-09T18:40:43.861Z,100864.84
2024-05-09T18:43:15.081Z,100867.38
2024-05-09T18:45:43.442Z,100867.95
2024-05-09T18:48:13.394Z,100866.77
2024-05-09T18:50:42.130Z,100871.70
2024-05-09T18:53:12.246Z,100875.66
2024-05-09T18:55:42.863Z,100879.27
2024-05-09T18:58:11.142Z,100880.41
2024-05-09T19:00:41.539Z,100880.23
2024-05-09T19:03:13.984Z,100881.11
2024-05-09T19:05:45.247Z,100881.88
2024-05-09T19:08:15.168Z,100880.26
2024-05-09T19:10:47.304Z,100882.44
2024-05-09T19:13:16.398Z,100888.32
2024-05-09T19:15:45.066Z,100893.37
2024-05-09T19:18:14.031Z,100890.06
2024-05-09T19:20:43.294Z,100891.90
2024-05-09T19:23:12.833Z,100892.09
2024-05-09T19:25:41.247Z,100889.70
2024-05-09T19:28:09.979Z,100894.06
2024-05-09T19:30:41.320Z,100895.73
2024-05-09T19:33:13.331Z,100896.33
2024-05-09T19:35:43.070Z,100894.38
2024-05-09T19:38:12.924Z,100895.94
2024-05-09T19:40:41.125Z,100897.89
2024-05-09T19:43:10.856Z,100899.20
2024-05-09T19:45:39.378Z,100901.99
2024-05-09T19:48:08.118Z,100902.35
2024-05-09T19:50:41.941Z,100907.68
2024-05-09T19:53:14.162Z,100905.67
2024-05-09T19:55:42.783Z,100909.56
2024-05-09T19:58:13.245Z,100904.41
2024-05-09T20:00:44.567Z,100910.59
2024-05-09T20:03:14.473Z,100913.20
2024-05-09T20:05:45.386Z,100912.86
2024-05-09T20:08:14.961Z,100907.89
2024-05-09T20:10:43.475Z,100910.23
2024-05-09T20:13:12.013Z,100912.71
2024-05-09T20:15:40.461Z,100913.12
2024-05-09T20:18:08.936Z,100914.73
2024-05-09T20:20:41.451Z,100921.40
2024-05-09T20:23:13.526Z,100918.80
2024-05-09T20:25:42.347Z,100919.57
2024-05-09T20:28:11.257Z,100913.98
2024-05-09T20:30:40.987Z,100918.79
2024-05-09T20:33:10.122Z,100913.66
2024-05-09T20:35:40.674Z,100912.66
2024-05-09T20:38:09.341Z,100914.50
2024-05-09T20:40:39.116Z,100913.52
2024-05-09T20:43:09.689Z,100915.77
2024-05-09T20:45:39.856Z,100912.85
2024-05-09T20:48:08.974Z,100910.62
2024-05-09T20:50:41.028Z,100906.64
2024-05-09T20:53:13.106Z,100907.64
2024-05-09T20:55:45.318Z,100908.79
2024-05-09T20:58:14.355Z,100911.27
2024-05-09T21:00:45.378Z,100919.09
2024-05-09T21:03:16.944Z,100916.70
2024-05-09T21:05:49.089Z,100919.92
2024-05-09T21:08:18.774Z,100919.10
2024-05-09T21:10:46.578Z,100917.66
2024-05-09T21:13:14.837Z,100918.82
2024-05-09T21:15:44.198Z,100917.70
2024-05-09T21:18:12.730Z,100920.33
2024-05-09T21:20:41.475Z,100915.38
2024-05-09T21:23:09.254Z,100918.67
2024-05-09T21:25:37.338Z,100917.63
2024-05-09T21:28:05.446Z,100918.30
2024-05-09T21:30:41.325Z,100920.48
2024-05-09T21:33:13.470Z,100917.86
2024-05-09T21:35:44.356Z,100916.13
2024-05-09T21:38:15.024Z,100917.67
2024-05-09T21:40:44.128Z,100917.96
2024-05-09T21:43:12.525Z,100919.02
2024-05-09T21:45:40.846Z,100918.06
2024-05-09T21:48:09.435Z,100918.05
2024-05-09T21:50:41.058Z,100920.14
2024-05-09T21:53:11.571Z,100919.74
2024-05-09T21:55:41.969Z,100913.05
2024-05-09T21:58:14.392Z,100912.94
2024-05-09T22:00:45.519Z,100914.99
2024-05-09T22:03:14.990Z,100916.36
2024-05-09T22:05:44.860Z,100916.03
2024-05-09T22:08:13.505Z,100916.19
2024-05-09T22:10:42.022Z,100919.39
2024-05-09T22:13:10.039Z,100914.40
2024-05-09T22:15:40.046Z,100914.23
2024-05-09T22:18:11.762Z,100909.58
2024-05-09T22:20:45.821Z,100907.14
2024-05-09T22:23:15.566Z,100907.31
2024-05-09T22:25:44.343Z,100907.98
2024-05-09T22:28:15.730Z,100908.76
2024-05-09T22:30:45.538Z,100908.64
2024-05-09T22:33:14.872Z,100907.55
2024-05-09T22:35:43.173Z,100907.23
2024-05-09T22:38:11.860Z,100906.05
2024-05-09T22:40:47.336Z,100907.68
2024-05-09T22:43:23.356Z,100907.97
2024-05-09T22:45:55.167Z,100907.23
2024-05-09T22:48:24.750Z,100905.11
2024-05-09T22:50:53.611Z,100904.27
2024-05-09T22:53:24.428Z,100903.34
2024-05-09T22:55:53.347Z,100904.88
2024-05-09T22:58:23.013Z,100901.51
2024-05-09T23:00:51.357Z,100905.10
2024-05-09T23:03:22.010Z,100903.16
2024-05-09T23:05:53.479Z,100896.19
2024-05-09T23:08:22.637Z,100901.06
2024-05-09T23:10:50.996Z,100894.38
2024-05-09T23:13:19.710Z,100892.06
2024-05-09T23:15:48.644Z,100889.80
2024-05-09T23:18:16.398Z,100892.40
2024-05-09T23:20:44.359Z,100888.10
2024-05-09T23:23:12.383Z,100891.25
2024-05-09T23:25:42.123Z,100885.52
2024-05-09T23:28:13.135Z,100882.25
2024-05-09T23:30:42.126Z,100884.30
2024-05-09T23:33:12.674Z,100883.41
2024-05-09T23:35:43.450Z,100881.33
2024-05-09T23:38:13.160Z,100880.08
2024-05-09T23:40:42.412Z,100882.84
2024-05-09T23:43:12.689Z,100881.30
2024-05-09T23:45:42.339Z,100880.33
2024-05-09T23:48:12.074Z,100881.61
2024-05-09T23:50:40.821Z,100878.71
2024-05-09T23:53:10.893Z,100878.80
2024-05-09T23:55:39.991Z,100879.22
2024-05-09T23:58:09.633Z,100874.50
